Time;durP1;ratioP1;P1;durP2;ratioP2;P2;SDS_P1;SDS_P2;PMS_P1;PMS_P2;Temp;Humidity;BMP_temperature;BMP_pressure;BME280_temperature;BME280_humidity;BME280_pressure;Samples;Min_cycle;Max_cycle;Signal;HPM_P1;HPM_P2
2022/01/15 00:03:19;;;;;;;19.43;10.10;;;3.50;99.90;;;1.60;84.54;100936.91;10386472;28;96649;-77
2022/01/15 00:08:23;;;;;;;19.07;9.80;;;3.50;99.90;;;1.57;84.75;100932.72;10387555;27;100263;-77
2022/01/15 00:13:30;;;;;;;17.77;10.17;;;3.40;99.90;;;1.57;85.12;100931.88;10400721;27;98731;-77
2022/01/15 00:18:58;;;;;;;20.63;10.07;;;3.40;99.90;;;1.59;85.80;100956.19;10403482;27;97414;-77
2022/01/15 00:24:02;;;;;;;21.00;10.20;;;3.40;99.90;;;1.56;85.45;100966.84;10403222;27;96568;-77
2022/01/15 00:29:04;;;;;;;16.80;9.47;;;3.40;99.90;;;1.54;85.87;100968.72;10389972;27;96608;-77
2022/01/15 00:34:07;;;;;;;15.57;8.87;;;3.30;99.90;;;1.50;85.79;100978.53;10370752;27;96572;-77
2022/01/15 00:39:10;;;;;;;19.07;10.17;;;3.30;99.90;;;1.48;86.24;100979.56;10417682;27;96686;-77
2022/01/15 00:44:13;;;;;;;18.33;9.57;;;3.30;99.90;;;1.44;86.13;101004.22;10399657;28;96846;-77
2022/01/15 00:49:16;;;;;;;16.23;8.90;;;3.30;99.90;;;1.38;86.54;101017.69;10409505;27;96635;-77
2022/01/15 00:54:19;;;;;;;19.30;9.20;;;3.20;99.90;;;1.38;86.51;101017.69;10378183;27;96679;-77
2022/01/15 00:59:21;;;;;;;18.27;9.50;;;3.20;99.90;;;1.35;86.74;101008.25;10385275;27;98201;-77
2022/01/15 01:04:25;;;;;;;17.40;8.77;;;3.20;99.90;;;1.33;86.44;101033.69;10372913;28;97471;-77
2022/01/15 01:09:40;;;;;;;18.70;9.23;;;3.20;99.90;;;1.36;86.60;101037.88;10434682;27;97341;-77
2022/01/15 01:20:10;;;;;;;17.75;9.80;;;3.20;99.90;;;1.31;86.97;101007.56;10424448;27;96692;-77
2022/01/15 01:25:13;;;;;;;19.10;8.97;;;3.20;99.90;;;1.28;87.24;101014.78;10390713;28;96808;-78
2022/01/15 01:35:37;;;;;;;17.33;8.60;;;3.10;99.90;;;1.31;87.54;101028.50;10427737;27;96596;-78
2022/01/15 01:40:46;;;;;;;16.80;9.03;;;3.10;99.90;;;1.28;87.42;101023.47;10431641;27;96925;-78
2022/01/15 01:46:00;;;;;;;16.03;7.93;;;3.10;99.90;;;1.27;87.13;101020.94;10392296;28;96556;-78
2022/01/15 01:51:06;;;;;;;17.67;9.13;;;3.10;99.90;;;1.28;87.04;101017.38;10380262;28;96672;-78
2022/01/15 01:56:09;;;;;;;16.57;9.23;;;3.10;99.90;;;1.23;87.41;101012.41;10417024;27;96834;-78
2022/01/15 02:01:12;;;;;;;17.93;8.90;;;3.10;99.90;;;1.20;87.68;101015.22;10416897;27;98397;-78
2022/01/15 02:06:17;;;;;;;16.20;9.07;;;3.10;99.90;;;1.19;87.70;101004.81;10396544;28;98002;-78
2022/01/15 02:11:21;;;;;;;14.40;8.63;;;3.00;99.90;;;1.18;87.81;100988.25;10409363;27;97089;-78
2022/01/15 02:16:23;;;;;;;16.47;8.27;;;3.00;99.90;;;1.19;87.50;100989.94;10384289;27;96591;-78
2022/01/15 02:26:29;;;;;;;16.73;8.73;;;3.00;99.90;;;1.26;87.23;101001.78;10435682;27;96644;-77
2022/01/15 02:31:32;;;;;;;17.40;9.23;;;3.00;99.90;;;1.26;86.90;100996.53;10379722;28;98142;-78
2022/01/15 02:36:37;;;;;;;15.03;8.30;;;3.10;99.90;;;1.26;87.05;100999.16;10394594;27;98665;-77
2022/01/15 02:41:41;;;;;;;12.33;7.80;;;3.10;99.90;;;1.21;87.09;100987.25;10412205;27;96615;-76
2022/01/15 02:51:51;;;;;;;14.80;8.53;;;3.00;99.90;;;1.15;87.10;100971.91;10375930;28;96661;-76
2022/01/15 02:56:54;;;;;;;17.63;8.17;;;3.00;99.90;;;1.11;86.57;100976.47;10411040;27;96733;-76
2022/01/15 03:01:57;;;;;;;15.70;8.33;;;3.00;99.90;;;1.05;86.92;100982.06;10363705;27;97950;-77
2022/01/15 03:07:00;;;;;;;16.30;9.07;;;2.90;99.90;;;1.08;87.06;100992.38;10416685;27;96890;-76
2022/01/15 03:12:03;;;;;;;15.73;8.90;;;2.90;99.90;;;1.04;87.18;100983.81;10394973;27;96522;-77
2022/01/15 03:17:06;;;;;;;13.83;8.30;;;2.90;99.90;;;1.04;87.46;100975.97;10403657;27;96571;-76
2022/01/15 03:22:17;;;;;;;15.97;8.07;;;2.90;99.90;;;1.13;87.57;100971.13;10372916;28;96586;-76
2022/01/15 03:27:24;;;;;;;13.20;7.97;;;2.90;99.90;;;1.18;86.73;100977.78;10411034;28;97046;-76
2022/01/15 03:32:27;;;;;;;15.33;8.47;;;3.00;99.90;;;1.20;86.47;100980.31;10406048;27;97519;-76
2022/01/15 03:37:30;;;;;;;15.27;7.40;;;3.00;99.90;;;1.22;86.23;100989.78;10353210;28;96727;-76
2022/01/15 03:42:33;;;;;;;16.50;7.53;;;3.00;99.90;;;1.23;86.17;101001.94;10395028;28;98070;-77
2022/01/15 03:47:36;;;;;;;14.13;7.50;;;3.00;99.90;;;1.21;86.00;100998.56;10419779;27;98454;-76
2022/01/15 03:52:39;;;;;;;15.97;7.53;;;3.00;99.90;;;1.20;86.19;101007.38;10407908;28;96590;-76
2022/01/15 03:57:42;;;;;;;14.57;7.53;;;3.00;99.90;;;1.22;85.59;101029.06;10412609;27;96941;-76
2022/01/15 04:02:46;;;;;;;14.03;7.47;;;3.00;99.90;;;1.21;85.70;101016.91;10417964;27;96528;-76
2022/01/15 04:07:50;;;;;;;13.60;6.93;;;3.00;99.90;;;1.22;85.97;101028.22;10425064;27;96497;-76
2022/01/15 04:12:52;;;;;;;13.23;6.87;;;3.00;99.90;;;1.25;85.60;101034.09;10393092;27;96621;-76
2022/01/15 04:17:55;;;;;;;14.77;6.57;;;3.10;99.90;;;1.27;85.32;101040.13;10406690;27;98222;-76
2022/01/15 04:22:58;;;;;;;13.57;6.70;;;3.10;99.90;;;1.27;85.00;101034.03;10417001;28;96432;-76
2022/01/15 04:28:07;;;;;;;11.90;6.07;;;3.10;99.90;;;1.31;84.21;101041.59;10415497;27;97882;-76
2022/01/15 04:33:09;;;;;;;11.43;6.27;;;3.10;99.90;;;1.32;83.85;101032.84;10400829;27;96981;-76
2022/01/15 04:38:13;;;;;;;10.53;5.70;;;3.10;99.90;;;1.31;83.45;101033.75;10422487;27;98269;-77
2022/01/15 04:43:17;;;;;;;11.37;6.17;;;3.10;99.90;;;1.32;83.17;101045.09;10378877;28;98446;-76
2022/01/15 04:48:20;;;;;;;10.63;5.63;;;3.10;99.90;;;1.32;82.53;101050.34;10418149;27;96636;-76
2022/01/15 04:53:23;;;;;;;6.70;4.20;;;3.10;99.90;;;1.41;81.48;101052.41;10396491;27;96584;-76
2022/01/15 04:58:27;;;;;;;8.30;4.40;;;3.20;99.90;;;1.45;80.18;101060.94;10398277;28;96882;-76
2022/01/15 05:03:32;;;;;;;10.23;4.90;;;3.30;99.90;;;1.47;80.29;101069.53;10375144;28;97925;-76
2022/01/15 05:08:36;;;;;;;9.80;5.67;;;3.30;99.90;;;1.40;79.54;101071.69;10390438;27;97162;-76
2022/01/15 05:13:39;;;;;;;9.20;4.47;;;3.30;99.90;;;1.31;79.90;101075.66;10378825;28;96605;-77
2022/01/15 05:18:42;;;;;;;8.33;4.43;;;3.20;99.90;;;1.21;80.58;101065.81;10380585;28;96539;-77
2022/01/15 05:23:45;;;;;;;10.47;5.00;;;3.10;99.90;;;1.19;80.11;101063.25;10380922;28;99189;-76
2022/01/15 05:28:48;;;;;;;11.63;4.07;;;3.10;99.90;;;1.16;80.18;101062.59;10371611;28;96982;-77
2022/01/15 05:33:52;;;;;;;10.13;3.93;;;3.00;99.90;;;1.20;79.59;101072.81;10390688;28;97035;-76
2022/01/15 05:38:55;;;;;;;10.63;3.70;;;3.10;99.90;;;1.21;79.05;101086.75;10371411;28;97108;-77
2022/01/15 05:44:01;;;;;;;10.23;4.03;;;3.10;99.90;;;1.21;78.82;101087.59;10405668;27;96668;-76
2022/01/15 05:49:05;;;;;;;9.20;3.40;;;3.10;99.90;;;1.26;77.89;101105.63;10401241;27;98562;-77
2022/01/15 05:54:10;;;;;;;7.33;3.23;;;3.10;99.90;;;1.33;77.48;101088.69;10387157;27;96581;-76
2022/01/15 05:59:13;;;;;;;5.40;2.80;;;3.20;99.90;;;1.36;76.62;101093.72;10374276;27;96739;-76
2022/01/15 06:04:17;;;;;;;8.33;3.83;;;3.20;99.90;;;1.38;76.41;101093.63;10396274;27;96669;-76
2022/01/15 06:09:20;;;;;;;6.50;2.93;;;3.20;99.90;;;1.38;76.13;101101.47;10418604;27;97372;-76
2022/01/15 06:14:23;;;;;;;8.43;3.37;;;3.20;99.90;;;1.36;76.37;101112.06;10379501;27;96595;-76
2022/01/15 06:19:27;;;;;;;5.23;2.80;;;3.20;99.90;;;1.32;76.04;101102.69;10384217;27;96610;-77
2022/01/15 06:24:30;;;;;;;9.73;3.87;;;3.20;99.90;;;1.23;76.10;101117.13;10376284;28;96559;-76
2022/01/15 06:29:33;;;;;;;10.10;3.50;;;3.10;99.90;;;1.19;76.02;101117.38;10380451;28;96593;-76
2022/01/15 06:34:36;;;;;;;9.27;3.20;;;3.10;99.90;;;1.16;76.20;101118.41;10393190;27;98293;-76
2022/01/15 06:39:39;;;;;;;8.47;3.53;;;3.10;99.90;;;1.17;75.82;101119.25;10397320;27;96695;-76
2022/01/15 06:44:42;;;;;;;12.10;4.13;;;3.00;99.90;;;1.12;76.16;101132.59;10383149;27;96766;-76
2022/01/15 06:49:45;;;;;;;7.73;2.90;;;3.00;99.90;;;1.11;75.51;101138.75;10393401;27;97667;-77
2022/01/15 06:54:48;;;;;;;7.63;2.53;;;3.00;99.90;;;1.13;74.88;101141.28;10369141;28;96612;-77
2022/01/15 06:59:51;;;;;;;7.60;2.17;;;3.00;99.90;;;1.34;75.32;101134.88;10406337;27;96588;-76
2022/01/15 07:04:54;;;;;;;8.50;2.70;;;3.10;99.90;;;1.84;72.90;101124.13;10384592;28;96730;-76
2022/01/15 07:09:58;;;;;;;13.37;6.10;;;3.20;99.90;;;2.31;71.15;101143.22;10393902;27;97042;-76
2022/01/15 07:15:01;;;;;;;7.73;2.90;;;3.40;99.90;;;2.62;69.65;101147.47;10375862;28;97056;-76
2022/01/15 07:20:04;;;;;;;9.13;2.77;;;3.70;99.90;;;2.86;68.44;101145.94;10405589;27;96772;-76
2022/01/15 07:25:09;;;;;;;6.67;2.50;;;3.90;99.90;;;3.15;66.97;101138.88;10382715;27;96656;-76
2022/01/15 07:30:14;;;;;;;9.07;3.70;;;4.10;99.90;;;3.43;65.85;101145.84;10373521;27;96822;-76
2022/01/15 07:35:18;;;;;;;9.63;2.27;;;4.30;99.90;;;3.66;64.90;101152.25;10393470;27;96725;-76
2022/01/15 07:40:21;;;;;;;7.73;2.90;;;4.60;99.90;;;3.68;64.22;101160.00;10384822;27;96516;-76
2022/01/15 07:45:24;;;;;;;9.83;3.83;;;4.70;99.90;;;3.96;63.84;101152.00;10406928;27;98414;-76
2022/01/15 07:50:27;;;;;;;12.17;4.70;;;4.90;99.90;;;4.42;63.92;101167.28;10412845;27;97511;-76
2022/01/15 07:55:30;;;;;;;9.47;3.97;;;5.10;99.90;;;4.82;61.64;101172.47;10383865;27;96618;-79
2022/01/15 08:00:37;;;;;;;8.63;3.60;;;5.40;99.90;;;5.05;59.90;101184.03;10426247;27;96651;-77
2022/01/15 08:05:40;;;;;;;14.37;5.30;;;5.60;99.90;;;5.44;58.41;101184.75;10428527;27;98271;-77
2022/01/15 08:10:44;;;;;;;11.67;3.93;;;5.90;97.30;;;5.71;56.02;101179.28;10387221;27;96651;-77
2022/01/15 08:15:47;;;;;;;7.90;2.80;;;6.00;95.00;;;5.75;55.37;101188.63;10398732;27;99191;-77
2022/01/15 08:20:50;;;;;;;9.10;3.33;;;6.30;95.10;;;5.99;54.89;101186.00;10388454;27;97368;-77
2022/01/15 08:25:53;;;;;;;8.60;3.37;;;6.50;93.90;;;6.19;52.66;101189.81;10392045;27;98197;-77
2022/01/15 08:30:56;;;;;;;6.83;2.77;;;6.80;91.70;;;6.43;52.98;101187.97;10402498;27;97290;-77
2022/01/15 08:36:00;;;;;;;7.80;2.13;;;7.10;90.70;;;6.71;51.50;101176.09;10410428;27;96607;-76
2022/01/15 08:41:03;;;;;;;5.20;1.90;;;7.40;88.60;;;6.97;50.52;101180.19;10389397;27;96911;-75
2022/01/15 08:46:06;;;;;;;7.40;2.17;;;7.70;85.00;;;7.14;50.14;101180.69;10374235;28;97135;-75
2022/01/15 08:51:08;;;;;;;9.90;3.07;;;7.90;83.60;;;7.38;48.64;101183.16;10376872;27;98258;-77
2022/01/15 08:56:11;;;;;;;5.93;1.83;;;8.20;77.80;;;7.31;47.16;101180.13;10343813;28;96469;-78
2022/01/15 09:01:15;;;;;;;6.77;1.77;;;8.30;75.30;;;7.14;47.53;101181.50;10393846;27;96621;-77
2022/01/15 09:06:18;;;;;;;5.90;1.93;;;8.20;73.40;;;7.25;46.92;101170.91;10417819;27;96473;-75
2022/01/15 09:11:23;;;;;;;9.67;2.43;;;8.30;72.00;;;6.79;47.81;101164.94;10424897;27;96535;-76
2022/01/15 09:16:26;;;;;;;16.23;4.73;;;8.10;70.60;;;6.06;48.94;101166.16;10418808;27;96749;-75
2022/01/15 09:21:29;;;;;;;12.47;5.07;;;7.70;70.30;;;5.87;50.32;101179.81;10442422;27;96520;-75
2022/01/15 09:27:00;;;;;;;6.87;1.87;;;7.50;71.40;;;6.50;49.23;101168.03;10426069;27;96641;-76
2022/01/15 09:32:04;;;;;;;7.37;3.03;;;7.80;71.90;;;7.24;47.05;101168.38;10375912;28;96976;-76
2022/01/15 09:37:07;;;;;;;4.97;2.10;;;8.30;70.70;;;7.77;45.32;101168.50;10390905;28;97241;-76
2022/01/15 09:42:12;;;;;;;10.97;4.87;;;8.70;67.80;;;8.32;43.94;101162.06;10429323;27;97819;-76
2022/01/15 09:47:16;;;;;;;4.30;1.70;;;9.20;66.60;;;8.50;43.08;101162.34;10417442;27;97696;-76
2022/01/15 09:52:24;;;;;;;6.10;2.37;;;9.50;64.50;;;8.80;43.09;101164.16;10406789;27;96487;-76
2022/01/15 09:57:27;;;;;;;7.17;1.57;;;9.70;63.50;;;8.93;41.96;101155.16;10454488;27;96489;-76
2022/01/15 10:02:30;;;;;;;8.97;2.33;;;9.90;62.60;;;8.71;41.91;101159.69;10415740;28;96489;-76
2022/01/15 10:07:33;;;;;;;8.13;2.00;;;9.80;60.70;;;8.08;42.95;101156.19;10416305;27;97465;-76
2022/01/15 10:12:38;;;;;;;5.83;1.77;;;9.50;60.50;;;7.39;44.59;101158.41;10420551;27;96739;-76
2022/01/15 10:17:43;;;;;;;7.87;2.00;;;9.10;60.80;;;6.67;46.37;101164.94;10457327;27;96899;-75
2022/01/15 10:22:49;;;;;;;6.30;2.60;;;8.50;61.90;;;6.19;47.73;101166.06;10441359;27;97933;-75
2022/01/15 10:27:56;;;;;;;6.50;1.90;;;8.10;62.80;;;5.81;48.61;101170.56;10392085;27;96540;-77
2022/01/15 10:33:09;;;;;;;7.40;2.37;;;7.70;63.80;;;5.51;50.35;101168.38;10458184;27;96505;-76
2022/01/15 10:38:17;;;;;;;5.37;2.47;;;7.40;65.60;;;5.34;51.30;101160.88;10439415;27;96529;-77
2022/01/15 10:43:21;;;;;;;7.07;2.77;;;7.20;66.90;;;5.19;51.56;101157.53;10419933;27;96569;-77
2022/01/15 10:48:31;;;;;;;10.40;2.67;;;7.10;66.70;;;5.08;51.65;101155.66;10423355;27;96463;-78
2022/01/15 10:53:35;;;;;;;6.37;2.30;;;6.90;67.30;;;5.11;51.64;101149.34;10439829;27;96425;-77
2022/01/15 10:58:39;;;;;;;4.40;2.00;;;6.90;68.10;;;5.90;50.61;101140.88;10424544;27;98397;-77
2022/01/15 11:03:44;;;;;;;3.63;1.70;;;7.40;68.20;;;6.93;47.81;101130.34;10415451;28;96503;-77
2022/01/15 11:08:51;;;;;;;6.00;1.67;;;8.20;65.80;;;7.35;46.34;101130.50;10423249;27;96559;-77
2022/01/15 11:13:54;;;;;;;8.77;1.67;;;8.60;64.50;;;8.02;45.86;101127.59;10432060;27;96593;-77
2022/01/15 11:18:58;;;;;;;6.03;1.70;;;9.20;64.60;;;8.27;42.39;101118.41;10441962;27;97100;-77
2022/01/15 11:24:06;;;;;;;6.70;1.70;;;9.50;61.00;;;7.91;43.92;101120.53;10377308;28;96533;-77
2022/01/15 11:29:11;;;;;;;7.13;2.30;;;9.30;61.10;;;7.36;44.51;101126.91;10369454;27;96453;-77
2022/01/15 11:34:16;;;;;;;9.63;2.30;;;9.00;60.60;;;6.83;45.10;101132.84;10439107;27;96539;-77
2022/01/15 11:39:21;;;;;;;12.53;3.53;;;8.60;60.70;;;6.38;46.68;101138.13;10425652;27;96504;-77
2022/01/15 11:44:35;;;;;;;8.23;1.60;;;8.30;61.40;;;6.03;46.47;101132.91;10394330;27;96487;-77
2022/01/15 11:49:44;;;;;;;9.00;2.27;;;7.90;61.00;;;5.83;47.27;101125.63;10451148;27;97290;-77
2022/01/15 11:55:02;;;;;;;3.73;1.40;;;7.70;61.80;;;5.67;46.85;101128.53;10412916;27;97010;-77
2022/01/15 12:00:17;;;;;;;5.87;2.07;;;7.50;61.20;;;5.51;47.04;101120.91;10439106;27;98229;-77
2022/01/15 12:05:22;;;;;;;9.23;1.93;;;7.30;61.60;;;5.43;47.57;101118.00;10419891;27;96508;-76
2022/01/15 12:10:38;;;;;;;4.50;1.63;;;7.20;62.00;;;5.36;48.15;101114.97;10372934;28;96444;-75
2022/01/15 12:15:41;;;;;;;8.97;3.27;;;7.10;62.80;;;5.32;48.59;101112.69;10383826;27;96579;-75
2022/01/15 12:20:45;;;;;;;10.27;2.40;;;7.10;63.10;;;5.27;48.76;101105.09;10387054;27;98483;-75
2022/01/15 12:25:54;;;;;;;8.37;2.03;;;7.00;63.40;;;5.20;48.72;101089.84;10399180;27;97257;-76
2022/01/15 12:30:58;;;;;;;6.97;1.60;;;7.00;63.30;;;5.12;49.26;101086.94;10378581;27;98537;-75
2022/01/15 12:36:01;;;;;;;4.20;1.50;;;6.90;63.90;;;5.09;49.52;101077.44;10394991;27;97612;-76
2022/01/15 12:41:06;;;;;;;5.37;1.20;;;6.80;64.20;;;5.08;49.56;101073.97;10388002;27;97443;-75
2022/01/15 12:46:17;;;;;;;7.27;1.93;;;6.80;64.50;;;5.12;51.77;101071.97;10394666;27;96895;-76
2022/01/15 12:51:22;;;;;;;12.15;2.50;;;6.80;67.30;;;5.17;51.50;101071.66;10395661;27;96957;-76
2022/01/15 12:56:27;;;;;;;6.87;1.93;;;6.90;66.40;;;5.15;53.15;101081.44;10386027;28;98435;-75
2022/01/15 13:01:31;;;;;;;5.57;2.03;;;6.90;68.20;;;5.06;54.27;101077.69;10396306;27;97406;-76
2022/01/15 13:06:34;;;;;;;5.77;2.00;;;6.80;69.60;;;4.99;54.89;101079.09;10394557;27;98972;-76
2022/01/15 13:11:39;;;;;;;7.00;2.40;;;6.80;71.10;;;4.92;55.46;101073.41;10396699;27;96566;-77
2022/01/15 13:16:42;;;;;;;10.93;3.20;;;6.70;71.20;;;4.87;56.05;101070.28;10395747;27;96668;-77
2022/01/15 13:21:46;;;;;;;11.13;3.43;;;6.70;72.40;;;4.80;56.38;101069.88;10398625;27;96601;-77
2022/01/15 13:26:49;;;;;;;11.10;3.70;;;6.60;72.80;;;4.75;56.31;101053.56;10406875;27;97281;-77
2022/01/15 13:31:52;;;;;;;16.83;6.63;;;6.50;72.80;;;4.69;56.31;101063.69;10379948;28;96809;-77
2022/01/15 13:37:10;;;;;;;11.93;5.43;;;6.50;73.30;;;4.62;56.74;101057.16;10401682;27;97586;-76
2022/01/15 13:42:21;;;;;;;9.83;3.27;;;6.40;73.90;;;4.54;56.94;101062.97;10404498;27;98240;-78
2022/01/15 13:47:24;;;;;;;7.43;3.93;;;6.30;74.20;;;4.50;57.01;101059.72;10399358;27;98219;-76
2022/01/15 13:58:15;;;;;;;7.87;2.87;;;6.20;73.90;;;4.35;56.87;101057.31;10383448;27;98354;-77
2022/01/15 14:03:25;;;;;;;7.28;2.10;;;6.10;74.20;;;4.25;56.95;101057.09;10402680;27;98266;-78
2022/01/15 14:08:28;;;;;;;8.50;2.37;;;6.10;74.60;;;4.16;56.94;101053.31;10390100;27;96674;-77
2022/01/15 14:13:31;;;;;;;10.23;3.30;;;6.00;75.00;;;4.10;57.18;101045.84;10374153;27;97042;-78
2022/01/15 14:18:46;;;;;;;8.80;3.00;;;5.90;74.80;;;4.04;56.88;101051.53;10416818;27;96684;-78
2022/01/15 14:23:55;;;;;;;9.63;2.43;;;5.90;74.90;;;3.96;56.85;101059.97;10400872;27;98168;-78
2022/01/15 14:28:58;;;;;;;11.13;3.13;;;5.70;74.60;;;3.89;56.65;101044.69;10382451;27;98688;-77
2022/01/15 14:34:05;;;;;;;9.17;2.73;;;5.70;74.50;;;3.80;57.01;101053.22;10394426;27;97915;-78
2022/01/15 14:39:08;;;;;;;7.90;3.23;;;5.60;74.60;;;3.71;56.85;101044.13;10395357;28;98694;-78
2022/01/15 14:44:12;;;;;;;19.90;9.97;;;5.50;74.20;;;3.57;56.98;101042.44;10394474;27;97655;-75
2022/01/15 14:49:15;;;;;;;20.90;10.03;;;5.40;74.40;;;3.49;57.20;101045.59;10399422;27;97054;-77
2022/01/15 14:54:18;;;;;;;42.47;21.27;;;5.40;74.50;;;3.35;57.08;101042.16;10403713;27;96606;-77
2022/01/15 14:59:20;;;;;;;21.27;11.97;;;5.30;74.70;;;3.21;56.96;101057.06;10389461;27;97834;-78
2022/01/15 15:04:23;;;;;;;9.53;4.13;;;5.20;74.30;;;3.13;56.66;101058.50;10409064;27;97073;-78
2022/01/15 15:09:26;;;;;;;94.40;30.30;;;5.00;73.80;;;3.07;55.71;101053.66;10398807;27;98084;-77
2022/01/15 15:14:29;;;;;;;15.83;5.17;;;5.00;73.40;;;3.01;55.58;101068.00;10392925;27;96705;-77
2022/01/15 15:19:32;;;;;;;35.90;18.13;;;4.90;72.70;;;2.90;56.12;101070.47;10399440;27;97291;-77
2022/01/15 15:24:35;;;;;;;40.83;15.57;;;4.80;73.00;;;2.75;56.81;101074.06;10394754;27;96923;-77
2022/01/15 15:29:38;;;;;;;19.43;7.43;;;4.70;73.40;;;2.61;56.76;101083.63;10395261;27;96710;-77
2022/01/15 15:34:42;;;;;;;15.47;4.97;;;4.60;74.10;;;2.51;57.13;101071.19;10393483;27;97338;-77
2022/01/15 15:39:45;;;;;;;9.20;2.53;;;4.50;74.80;;;2.44;57.68;101069.88;10392232;27;98176;-77
2022/01/15 15:44:48;;;;;;;9.93;2.33;;;4.40;74.40;;;2.34;57.06;101075.69;10407742;27;97061;-77
2022/01/15 15:49:51;;;;;;;16.83;5.00;;;4.30;74.20;;;2.15;57.60;101075.09;10382627;27;97206;-77
2022/01/15 15:54:56;;;;;;;28.23;9.53;;;4.20;74.30;;;1.88;58.22;101080.22;10385036;27;96926;-77
2022/01/15 15:59:59;;;;;;;201.50;78.23;;;4.00;74.50;;;1.62;59.32;101071.28;10401684;27;96681;-77
2022/01/15 16:05:02;;;;;;;27.30;12.40;;;3.80;75.60;;;1.51;59.70;101073.69;10383963;28;96611;-77
2022/01/15 16:10:06;;;;;;;14.03;6.23;;;3.60;75.90;;;1.47;60.75;101072.16;10380198;27;98492;-77
2022/01/15 16:15:09;;;;;;;35.53;14.33;;;3.50;77.90;;;1.46;60.47;101076.56;10398414;27;96979;-76
2022/01/15 16:20:13;;;;;;;65.23;25.50;;;3.50;77.80;;;1.31;60.87;101072.19;10415524;27;96538;-77
2022/01/15 16:25:18;;;;;;;76.93;30.73;;;3.40;77.70;;;1.04;60.86;101079.84;10399315;27;98104;-77
2022/01/15 16:30:21;;;;;;;50.50;20.60;;;3.20;78.10;;;0.76;62.19;101090.97;10398824;27;98649;-77
2022/01/15 16:35:24;;;;;;;41.53;19.37;;;3.00;79.70;;;0.50;62.88;101085.38;10415236;27;96709;-77
2022/01/15 16:40:26;;;;;;;22.47;9.03;;;2.70;80.10;;;0.32;64.59;101082.88;10408955;27;98011;-77
2022/01/15 16:45:30;;;;;;;25.13;10.97;;;2.50;83.70;;;0.30;64.27;101103.03;10419449;27;96943;-77
2022/01/15 16:50:36;;;;;;;30.10;12.63;;;2.40;83.30;;;0.13;64.07;101096.94;10393865;27;97140;-77
2022/01/15 16:55:40;;;;;;;19.73;8.50;;;2.30;82.80;;;-0.01;64.70;101091.53;10405944;27;96533;-77
2022/01/15 17:00:43;;;;;;;21.53;9.17;;;2.20;82.60;;;-0.18;65.30;101096.78;10403186;27;96548;-77
2022/01/15 17:05:46;;;;;;;76.67;28.37;;;2.00;83.50;;;-0.30;66.45;101088.66;10409677;27;97954;-77
2022/01/15 17:10:48;;;;;;;100.57;33.90;;;1.90;86.40;;;-0.46;66.87;101098.16;10384928;27;96724;-78
2022/01/15 17:15:52;;;;;;;87.40;37.53;;;1.80;86.70;;;-0.61;66.52;101104.97;10416042;27;96618;-78
2022/01/15 17:20:55;;;;;;;54.90;25.63;;;1.60;86.90;;;-0.75;66.45;101103.94;10428339;27;96601;-77
2022/01/15 17:25:58;;;;;;;58.97;22.93;;;1.50;87.20;;;-0.93;66.85;101101.28;10415167;27;96454;-77
2022/01/15 17:31:01;;;;;;;50.53;19.13;;;1.40;87.80;;;-1.10;67.84;101103.84;10379271;27;97112;-78
2022/01/15 17:36:06;;;;;;;55.53;21.70;;;1.20;90.10;;;-1.29;68.11;101110.84;10393124;27;96415;-77
2022/01/15 17:41:10;;;;;;;49.73;18.57;;;1.00;89.60;;;-1.46;68.77;101115.03;10404054;27;97199;-78
2022/01/15 17:46:13;;;;;;;60.93;21.27;;;0.90;90.60;;;-1.53;69.84;101125.81;10423439;27;96659;-78
2022/01/15 17:51:18;;;;;;;46.80;17.43;;;0.80;91.40;;;-1.59;69.89;101126.94;10375261;28;96489;-77
2022/01/15 17:56:21;;;;;;;25.27;9.97;;;0.70;92.50;;;-1.61;70.49;101126.16;10409931;27;96578;-78
2022/01/15 18:01:24;;;;;;;26.20;7.83;;;0.70;93.60;;;-1.56;70.37;101134.63;10378896;27;96436;-77
2022/01/15 18:06:27;;;;;;;21.63;7.63;;;0.70;93.40;;;-1.55;70.99;101136.31;10397103;27;97230;-77
2022/01/15 18:11:35;;;;;;;19.10;7.90;;;0.70;94.00;;;-1.54;71.20;101132.78;10404507;27;96890;-78
2022/01/15 18:16:43;;;;;;;43.17;13.93;;;0.70;94.70;;;-1.54;71.79;101138.00;10418716;27;96433;-78
2022/01/15 18:21:47;;;;;;;32.93;13.13;;;0.60;97.40;;;-1.51;72.01;101129.19;10428816;27;96559;-75
2022/01/15 18:26:50;;;;;;;26.37;8.67;;;0.70;97.30;;;-1.49;71.66;101127.38;10387834;27;96580;-76
2022/01/15 18:31:53;;;;;;;20.93;6.90;;;0.70;96.80;;;-1.45;71.81;101111.50;10401100;27;96494;-76
2022/01/15 18:36:56;;;;;;;22.50;7.93;;;0.70;96.80;;;-1.42;71.87;101111.41;10423158;27;96452;-76
2022/01/15 18:41:59;;;;;;;22.33;7.30;;;0.70;97.20;;;-1.38;72.62;101117.28;10419350;27;96574;-77
2022/01/15 18:47:02;;;;;;;20.33;6.70;;;0.80;95.80;;;-1.44;72.53;101122.78;10438156;27;97901;-77
2022/01/15 18:52:06;;;;;;;18.03;6.60;;;0.70;99.30;;;-1.49;72.75;101132.59;10425725;27;97643;-77
2022/01/15 18:57:09;;;;;;;22.70;8.57;;;0.70;98.10;;;-1.65;72.60;101140.22;10416331;27;97298;-77
2022/01/15 19:02:11;;;;;;;38.40;15.73;;;0.60;98.30;;;-1.82;72.93;101145.31;10411262;27;96648;-77
2022/01/15 19:07:15;;;;;;;33.53;13.10;;;0.50;98.10;;;-1.98;73.02;101147.72;10396604;28;96745;-77
2022/01/15 19:12:18;;;;;;;28.83;12.67;;;0.30;97.90;;;-2.10;73.52;101158.66;10426132;27;96743;-77
2022/01/15 19:17:21;;;;;;;35.87;13.43;;;0.20;97.90;;;-2.25;74.00;101187.03;10398836;28;97923;-76
2022/01/15 19:22:24;;;;;;;25.10;11.57;;;0.10;98.90;;;-2.42;74.42;101200.72;10336491;28;97621;-77
2022/01/15 19:27:28;;;;;;;27.80;9.93;;;0.00;99.90;;;-2.55;75.14;101199.50;10366746;28;96516;-76
2022/01/15 19:32:33;;;;;;;28.67;9.80;;;-0.20;99.90;;;-2.64;75.52;101298.75;10378755;28;96553;-77
2022/01/15 19:37:36;;;;;;;15.00;5.77;;;-0.30;99.90;;;-2.66;75.73;101193.03;10414174;28;96443;-77
2022/01/15 19:42:39;;;;;;;18.20;5.83;;;-0.30;99.90;;;-2.64;76.56;101173.84;10397149;28;96587;-77
2022/01/15 19:47:44;;;;;;;20.60;5.57;;;-0.30;99.90;;;-2.56;76.64;101231.66;10357242;28;97723;-77
2022/01/15 19:52:49;;;;;;;12.20;4.90;;;-0.30;99.90;;;-2.49;76.86;101211.44;10338383;28;96422;-77
2022/01/15 19:57:53;;;;;;;18.40;5.67;;;-0.20;99.90;;;-2.50;76.95;101148.13;10419959;28;96451;-77
2022/01/15 20:02:57;;;;;;;16.20;5.43;;;-0.30;99.90;;;-2.53;76.55;101139.59;10372469;28;98633;-77
2022/01/15 20:08:00;;;;;;;16.60;6.90;;;-0.30;99.90;;;-2.57;76.85;101123.28;10335357;28;98032;-76
2022/01/15 20:13:03;;;;;;;27.10;9.23;;;-0.30;99.90;;;-2.60;77.27;101151.16;10411658;27;97066;-76
2022/01/15 20:18:06;;;;;;;31.57;10.90;;;-0.30;99.90;;;-2.62;77.52;101189.41;10434041;27;96434;-78
2022/01/15 20:23:09;;;;;;;43.93;14.53;;;-0.40;99.90;;;-2.66;77.38;101209.50;10413024;27;96674;-76
2022/01/15 20:28:13;;;;;;;50.77;17.37;;;-0.40;99.90;;;-2.75;77.48;101168.22;10442267;27;96643;-76
2022/01/15 20:33:16;;;;;;;37.00;12.97;;;-0.50;99.90;;;-2.80;77.92;101136.34;10401911;27;97751;-76
2022/01/15 20:38:20;;;;;;;39.90;13.70;;;-0.50;99.90;;;-2.84;78.10;101130.41;10392247;27;96865;-75
2022/01/15 20:43:22;;;;;;;35.63;12.93;;;-0.60;99.90;;;-2.87;78.30;101158.31;10380229;27;98464;-75
2022/01/15 20:48:25;;;;;;;38.30;12.43;;;-0.60;99.90;;;-2.90;78.38;101176.59;10389156;27;97341;-75
2022/01/15 20:53:28;;;;;;;50.60;16.67;;;-0.70;99.90;;;-2.99;79.01;101199.47;10411169;27;96548;-76
2022/01/15 20:58:31;;;;;;;51.53;15.93;;;-0.70;99.90;;;-3.06;78.98;101190.22;10412256;27;98146;-76
2022/01/15 21:03:34;;;;;;;24.20;8.57;;;-0.80;99.90;;;-3.18;78.76;101158.59;10386154;27;98289;-75
2022/01/15 21:08:38;;;;;;;20.70;9.33;;;-0.90;99.90;;;-3.30;78.50;101157.28;10410748;27;96610;-75
2022/01/15 21:13:41;;;;;;;21.97;8.50;;;-1.00;99.90;;;-3.39;78.72;101168.03;10393473;27;98373;-75
2022/01/15 21:18:45;;;;;;;22.63;9.47;;;-1.10;99.90;;;-3.54;78.61;101201.47;10394053;28;97139;-75
2022/01/15 21:23:47;;;;;;;23.40;9.70;;;-1.10;99.90;;;-3.69;78.84;101185.56;10420920;27;97314;-75
2022/01/15 21:28:54;;;;;;;24.00;8.33;;;-1.30;99.90;;;-3.81;79.05;101231.81;10377184;28;98273;-75
2022/01/15 21:33:57;;;;;;;24.27;9.23;;;-1.40;99.90;;;-3.91;79.67;101232.16;10390122;27;96628;-75